sensor_id;sensor_type;location;lat;lon;timestamp;pressure;altitude;pressure_sealevel;temperature;humidity
70758;BME280;59316;52.964;7.102;2023-04-09T00:03:49;102672.00;;;9.91;nan
70758;BME280;59316;52.964;7.102;2023-04-09T00:09:11;102678.78;;;9.98;nan
70758;BME280;59316;52.964;7.102;2023-04-09T00:14:32;102680.41;;;10.02;nan
70758;BME280;59316;52.964;7.102;2023-04-09T00:19:54;102681.28;;;10.01;nan
70758;BME280;59316;52.964;7.102;2023-04-09T00:25:15;102678.63;;;10.04;nan
70758;BME280;59316;52.964;7.102;2023-04-09T00:30:37;102677.75;;;10.04;nan
70758;BME280;59316;52.964;7.102;2023-04-09T00:35:58;102665.72;;;9.98;nan
70758;BME280;59316;52.964;7.102;2023-04-09T00:41:20;102668.19;;;10.03;nan
70758;BME280;59316;52.964;7.102;2023-04-09T00:46:41;102670.88;;;10.00;nan
70758;BME280;59316;52.964;7.102;2023-04-09T00:52:03;102660.38;;;10.01;nan
70758;BME280;59316;52.964;7.102;2023-04-09T00:57:24;102671.19;;;9.89;nan
70758;BME280;59316;52.964;7.102;2023-04-09T01:02:47;102670.28;;;9.90;nan
70758;BME280;59316;52.964;7.102;2023-04-09T01:08:15;102666.09;;;9.84;nan
70758;BME280;59316;52.964;7.102;2023-04-09T01:14:05;102669.44;;;9.90;nan
70758;BME280;59316;52.964;7.102;2023-04-09T01:20:07;102668.50;;;9.92;nan
70758;BME280;59316;52.964;7.102;2023-04-09T01:25:59;102657.91;;;9.97;nan
70758;BME280;59316;52.964;7.102;2023-04-09T01:31:31;102654.81;;;9.82;nan
70758;BME280;59316;52.964;7.102;2023-04-09T01:36:58;102653.06;;;9.83;nan
70758;BME280;59316;52.964;7.102;2023-04-09T01:42:22;102647.91;;;9.80;nan
70758;BME280;59316;52.964;7.102;2023-04-09T01:47:44;102644.34;;;9.84;nan
70758;BME280;59316;52.964;7.102;2023-04-09T01:53:06;102633.22;;;9.76;nan
70758;BME280;59316;52.964;7.102;2023-04-09T01:58:28;102642.25;;;9.64;nan
70758;BME280;59316;52.964;7.102;2023-04-09T02:03:58;102645.13;;;9.54;nan
70758;BME280;59316;52.964;7.102;2023-04-09T02:09:23;102638.25;;;9.50;nan
70758;BME280;59316;52.964;7.102;2023-04-09T02:14:50;102630.56;;;9.46;nan
70758;BME280;59316;52.964;7.102;2023-04-09T02:20:16;102629.31;;;9.59;nan
70758;BME280;59316;52.964;7.102;2023-04-09T02:25:37;102630.19;;;9.60;nan
70758;BME280;59316;52.964;7.102;2023-04-09T02:30:59;102623.25;;;9.59;nan
70758;BME280;59316;52.964;7.102;2023-04-09T02:36:22;102625.34;;;9.44;nan
70758;BME280;59316;52.964;7.102;2023-04-09T02:41:43;102625.09;;;9.55;nan
70758;BME280;59316;52.964;7.102;2023-04-09T02:47:05;102614.09;;;9.42;nan
70758;BME280;59316;52.964;7.102;2023-04-09T02:52:29;102612.47;;;9.38;nan
70758;BME280;59316;52.964;7.102;2023-04-09T02:57:51;102618.44;;;9.09;nan
70758;BME280;59316;52.964;7.102;2023-04-09T03:03:12;102608.88;;;8.73;nan
70758;BME280;59316;52.964;7.102;2023-04-09T03:08:34;102613.13;;;8.39;nan
70758;BME280;59316;52.964;7.102;2023-04-09T03:13:55;102601.56;;;8.11;nan
70758;BME280;59316;52.964;7.102;2023-04-09T03:19:16;102604.25;;;7.61;nan
70758;BME280;59316;52.964;7.102;2023-04-09T03:24:38;102599.88;;;7.16;nan
70758;BME280;59316;52.964;7.102;2023-04-09T03:29:59;102584.88;;;6.79;nan
70758;BME280;59316;52.964;7.102;2023-04-09T03:35:28;102590.53;;;6.46;nan
70758;BME280;59316;52.964;7.102;2023-04-09T03:40:52;102586.47;;;6.28;nan
70758;BME280;59316;52.964;7.102;2023-04-09T03:46:14;102593.66;;;6.10;nan
70758;BME280;59316;52.964;7.102;2023-04-09T03:51:39;102599.00;;;5.97;nan
70758;BME280;59316;52.964;7.102;2023-04-09T03:57:01;102590.53;;;5.81;nan
70758;BME280;59316;52.964;7.102;2023-04-09T04:02:22;102596.59;;;5.80;nan
70758;BME280;59316;52.964;7.102;2023-04-09T04:07:52;102599.19;;;5.80;nan
70758;BME280;59316;52.964;7.102;2023-04-09T04:13:20;102592.75;;;6.10;nan
70758;BME280;59316;52.964;7.102;2023-04-09T04:18:48;102595.72;;;6.49;nan
70758;BME280;59316;52.964;7.102;2023-04-09T04:24:10;102590.09;;;6.75;nan
70758;BME280;59316;52.964;7.102;2023-04-09T04:29:33;102598.34;;;7.02;nan
70758;BME280;59316;52.964;7.102;2023-04-09T04:34:56;102595.34;;;7.25;nan
70758;BME280;59316;52.964;7.102;2023-04-09T04:40:19;102601.22;;;7.38;nan
70758;BME280;59316;52.964;7.102;2023-04-09T04:45:46;102597.69;;;7.39;nan
70758;BME280;59316;52.964;7.102;2023-04-09T04:51:08;102602.59;;;7.56;nan
70758;BME280;59316;52.964;7.102;2023-04-09T04:56:35;102606.41;;;7.84;nan
70758;BME280;59316;52.964;7.102;2023-04-09T05:02:06;102604.25;;;8.07;nan
70758;BME280;59316;52.964;7.102;2023-04-09T05:07:38;102612.44;;;8.30;nan
70758;BME280;59316;52.964;7.102;2023-04-09T05:12:59;102612.06;;;8.47;nan
70758;BME280;59316;52.964;7.102;2023-04-09T05:18:27;102616.31;;;8.52;nan
70758;BME280;59316;52.964;7.102;2023-04-09T05:23:48;102617.84;;;8.61;nan
70758;BME280;59316;52.964;7.102;2023-04-09T05:29:10;102618.69;;;8.62;nan
70758;BME280;59316;52.964;7.102;2023-04-09T05:34:31;102621.22;;;8.65;nan
70758;BME280;59316;52.964;7.102;2023-04-09T05:39:52;102622.56;;;8.81;nan
70758;BME280;59316;52.964;7.102;2023-04-09T05:45:14;102616.31;;;8.88;nan
70758;BME280;59316;52.964;7.102;2023-04-09T05:50:41;102619.41;;;8.68;nan
70758;BME280;59316;52.964;7.102;2023-04-09T05:56:14;102621.66;;;8.46;nan
70758;BME280;59316;52.964;7.102;2023-04-09T06:01:44;102621.78;;;8.40;nan
70758;BME280;59316;52.964;7.102;2023-04-09T06:07:05;102618.81;;;8.55;nan
70758;BME280;59316;52.964;7.102;2023-04-09T06:12:28;102602.25;;;8.96;nan
70758;BME280;59316;52.964;7.102;2023-04-09T06:17:50;102609.28;;;9.27;nan
70758;BME280;59316;52.964;7.102;2023-04-09T06:23:11;102610.59;;;9.43;nan
70758;BME280;59316;52.964;7.102;2023-04-09T06:28:33;102611.34;;;9.48;nan
70758;BME280;59316;52.964;7.102;2023-04-09T06:33:54;102614.88;;;9.79;nan
70758;BME280;59316;52.964;7.102;2023-04-09T06:39:16;102625.50;;;9.73;nan
70758;BME280;59316;52.964;7.102;2023-04-09T06:44:37;102623.53;;;10.11;nan
70758;BME280;59316;52.964;7.102;2023-04-09T06:49:59;102627.56;;;10.79;nan
70758;BME280;59316;52.964;7.102;2023-04-09T06:55:20;102619.00;;;11.78;nan
70758;BME280;59316;52.964;7.102;2023-04-09T07:00:42;102616.44;;;12.23;nan
70758;BME280;59316;52.964;7.102;2023-04-09T07:06:03;102620.44;;;12.33;nan
70758;BME280;59316;52.964;7.102;2023-04-09T07:11:25;102613.41;;;12.57;nan
70758;BME280;59316;52.964;7.102;2023-04-09T07:16:47;102617.69;;;12.82;nan
70758;BME280;59316;52.964;7.102;2023-04-09T07:22:08;102619.84;;;12.93;nan
70758;BME280;59316;52.964;7.102;2023-04-09T07:27:30;102620.63;;;12.28;nan
70758;BME280;59316;52.964;7.102;2023-04-09T07:32:51;102612.53;;;13.01;nan
70758;BME280;59316;52.964;7.102;2023-04-09T07:38:13;102614.06;;;13.67;nan
70758;BME280;59316;52.964;7.102;2023-04-09T07:43:35;102620.13;;;13.88;nan
70758;BME280;59316;52.964;7.102;2023-04-09T07:48:56;102618.25;;;13.71;nan
70758;BME280;59316;52.964;7.102;2023-04-09T07:54:18;102622.88;;;13.85;nan
70758;BME280;59316;52.964;7.102;2023-04-09T07:59:39;102628.59;;;13.95;nan
70758;BME280;59316;52.964;7.102;2023-04-09T08:05:01;102625.06;;;14.53;nan
70758;BME280;59316;52.964;7.102;2023-04-09T08:10:23;102620.78;;;14.51;nan
70758;BME280;59316;52.964;7.102;2023-04-09T08:15:44;102610.16;;;15.06;nan
70758;BME280;59316;52.964;7.102;2023-04-09T08:21:06;102610.63;;;14.97;nan
70758;BME280;59316;52.964;7.102;2023-04-09T08:26:27;102601.00;;;14.96;nan
70758;BME280;59316;52.964;7.102;2023-04-09T08:31:49;102608.19;;;15.63;nan
70758;BME280;59316;52.964;7.102;2023-04-09T08:37:10;102610.63;;;15.66;nan
70758;BME280;59316;52.964;7.102;2023-04-09T08:42:33;102613.66;;;15.75;nan
70758;BME280;59316;52.964;7.102;2023-04-09T08:47:54;102611.19;;;15.72;nan
70758;BME280;59316;52.964;7.102;2023-04-09T08:53:16;102612.88;;;15.22;nan
70758;BME280;59316;52.964;7.102;2023-04-09T08:58:43;102597.63;;;15.63;nan
70758;BME280;59316;52.964;7.102;2023-04-09T09:04:06;102596.41;;;16.18;nan
70758;BME280;59316;52.964;7.102;2023-04-09T09:09:28;102588.66;;;17.07;nan
70758;BME280;59316;52.964;7.102;2023-04-09T09:14:50;102595.09;;;17.03;nan
70758;BME280;59316;52.964;7.102;2023-04-09T09:20:18;102598.75;;;16.70;nan
70758;BME280;59316;52.964;7.102;2023-04-09T09:25:40;102597.69;;;17.48;nan
70758;BME280;59316;52.964;7.102;2023-04-09T09:31:11;102597.03;;;17.45;nan
70758;BME280;59316;52.964;7.102;2023-04-09T09:36:34;102586.78;;;16.65;nan
70758;BME280;59316;52.964;7.102;2023-04-09T09:42:06;102587.31;;;17.31;nan
70758;BME280;59316;52.964;7.102;2023-04-09T09:47:28;102585.78;;;17.27;nan
70758;BME280;59316;52.964;7.102;2023-04-09T09:52:55;102583.09;;;16.98;nan
70758;BME280;59316;52.964;7.102;2023-04-09T09:58:31;102579.00;;;17.66;nan
70758;BME280;59316;52.964;7.102;2023-04-09T10:04:01;102570.69;;;17.58;nan
70758;BME280;59316;52.964;7.102;2023-04-09T10:09:26;102565.38;;;17.72;nan
70758;BME280;59316;52.964;7.102;2023-04-09T10:14:50;102563.03;;;17.53;nan
70758;BME280;59316;52.964;7.102;2023-04-09T10:20:16;102552.03;;;18.30;nan
70758;BME280;59316;52.964;7.102;2023-04-09T10:25:44;102554.91;;;18.27;nan
70758;BME280;59316;52.964;7.102;2023-04-09T10:31:06;102546.50;;;18.60;nan
70758;BME280;59316;52.964;7.102;2023-04-09T10:36:29;102545.53;;;19.14;nan
70758;BME280;59316;52.964;7.102;2023-04-09T10:41:51;102542.50;;;19.71;nan
70758;BME280;59316;52.964;7.102;2023-04-09T10:47:30;102539.34;;;19.90;nan
70758;BME280;59316;52.964;7.102;2023-04-09T10:52:56;102539.22;;;18.77;nan
70758;BME280;59316;52.964;7.102;2023-04-09T10:58:18;102536.41;;;19.18;nan
70758;BME280;59316;52.964;7.102;2023-04-09T11:03:43;102520.16;;;19.36;nan
70758;BME280;59316;52.964;7.102;2023-04-09T11:09:05;102519.81;;;19.91;nan
70758;BME280;59316;52.964;7.102;2023-04-09T11:14:26;102502.97;;;20.16;nan
70758;BME280;59316;52.964;7.102;2023-04-09T11:19:48;102507.09;;;19.96;nan
70758;BME280;59316;52.964;7.102;2023-04-09T11:25:09;102497.53;;;20.17;nan
70758;BME280;59316;52.964;7.102;2023-04-09T11:30:36;102488.72;;;20.64;nan
70758;BME280;59316;52.964;7.102;2023-04-09T11:35:58;102484.06;;;20.79;nan
70758;BME280;59316;52.964;7.102;2023-04-09T11:41:36;102494.94;;;20.29;nan
70758;BME280;59316;52.964;7.102;2023-04-09T11:46:58;102496.84;;;20.02;nan
70758;BME280;59316;52.964;7.102;2023-04-09T11:52:20;102487.63;;;19.71;nan
70758;BME280;59316;52.964;7.102;2023-04-09T11:57:44;102480.66;;;20.30;nan
70758;BME280;59316;52.964;7.102;2023-04-09T12:03:06;102483.72;;;19.64;nan
70758;BME280;59316;52.964;7.102;2023-04-09T12:08:30;102485.97;;;19.94;nan
70758;BME280;59316;52.964;7.102;2023-04-09T12:14:05;102486.00;;;20.41;nan
70758;BME280;59316;52.964;7.102;2023-04-09T12:19:27;102484.00;;;21.14;nan
70758;BME280;59316;52.964;7.102;2023-04-09T12:24:48;102472.63;;;21.79;nan
70758;BME280;59316;52.964;7.102;2023-04-09T12:30:10;102461.97;;;21.79;nan
70758;BME280;59316;52.964;7.102;2023-04-09T12:35:32;102464.22;;;20.72;nan
70758;BME280;59316;52.964;7.102;2023-04-09T12:40:53;102464.56;;;19.72;nan
70758;BME280;59316;52.964;7.102;2023-04-09T12:46:16;102454.66;;;19.87;nan
70758;BME280;59316;52.964;7.102;2023-04-09T12:51:38;102457.28;;;19.62;nan
70758;BME280;59316;52.964;7.102;2023-04-09T12:56:59;102462.50;;;20.12;nan
70758;BME280;59316;52.964;7.102;2023-04-09T13:02:21;102453.34;;;20.63;nan
70758;BME280;59316;52.964;7.102;2023-04-09T13:07:42;102448.22;;;20.49;nan
70758;BME280;59316;52.964;7.102;2023-04-09T13:13:04;102450.41;;;20.55;nan
70758;BME280;59316;52.964;7.102;2023-04-09T13:18:25;102434.59;;;21.56;nan
70758;BME280;59316;52.964;7.102;2023-04-09T13:23:47;102437.47;;;20.39;nan
70758;BME280;59316;52.964;7.102;2023-04-09T13:29:09;102412.28;;;21.68;nan
70758;BME280;59316;52.964;7.102;2023-04-09T13:34:30;102413.25;;;22.00;nan
70758;BME280;59316;52.964;7.102;2023-04-09T13:39:52;102411.69;;;21.64;nan
70758;BME280;59316;52.964;7.102;2023-04-09T13:45:13;102409.09;;;20.51;nan
70758;BME280;59316;52.964;7.102;2023-04-09T13:50:35;102405.69;;;20.26;nan
70758;BME280;59316;52.964;7.102;2023-04-09T13:55:56;102407.31;;;21.31;nan
70758;BME280;59316;52.964;7.102;2023-04-09T14:01:18;102407.72;;;22.55;nan
70758;BME280;59316;52.964;7.102;2023-04-09T14:06:39;102401.22;;;21.84;nan
70758;BME280;59316;52.964;7.102;2023-04-09T14:12:01;102385.19;;;22.69;nan
70758;BME280;59316;52.964;7.102;2023-04-09T14:17:22;102385.41;;;22.56;nan
70758;BME280;59316;52.964;7.102;2023-04-09T14:22:44;102382.81;;;22.66;nan
70758;BME280;59316;52.964;7.102;2023-04-09T14:28:05;102381.53;;;21.31;nan
70758;BME280;59316;52.964;7.102;2023-04-09T14:33:27;102383.72;;;20.36;nan
70758;BME280;59316;52.964;7.102;2023-04-09T14:38:48;102378.69;;;20.78;nan
70758;BME280;59316;52.964;7.102;2023-04-09T14:44:10;102375.38;;;21.31;nan
70758;BME280;59316;52.964;7.102;2023-04-09T14:49:31;102371.66;;;20.31;nan
70758;BME280;59316;52.964;7.102;2023-04-09T14:54:53;102362.50;;;18.77;nan
70758;BME280;59316;52.964;7.102;2023-04-09T15:00:14;102375.31;;;18.06;nan
70758;BME280;59316;52.964;7.102;2023-04-09T15:05:36;102373.94;;;18.13;nan
70758;BME280;59316;52.964;7.102;2023-04-09T15:10:58;102363.31;;;19.16;nan
70758;BME280;59316;52.964;7.102;2023-04-09T15:16:21;102364.75;;;18.70;nan
70758;BME280;59316;52.964;7.102;2023-04-09T15:21:44;102357.53;;;19.35;nan
70758;BME280;59316;52.964;7.102;2023-04-09T15:27:05;102338.81;;;19.13;nan
70758;BME280;59316;52.964;7.102;2023-04-09T15:32:28;102330.06;;;18.74;nan
70758;BME280;59316;52.964;7.102;2023-04-09T15:37:50;102328.56;;;18.82;nan
70758;BME280;59316;52.964;7.102;2023-04-09T15:43:12;102332.59;;;19.74;nan
70758;BME280;59316;52.964;7.102;2023-04-09T15:48:33;102326.09;;;19.78;nan
70758;BME280;59316;52.964;7.102;2023-04-09T15:53:54;102336.00;;;19.51;nan
70758;BME280;59316;52.964;7.102;2023-04-09T15:59:16;102333.00;;;18.19;nan
70758;BME280;59316;52.964;7.102;2023-04-09T16:04:37;102320.16;;;17.72;nan
70758;BME280;59316;52.964;7.102;2023-04-09T16:10:00;102319.34;;;17.45;nan
70758;BME280;59316;52.964;7.102;2023-04-09T16:15:22;102325.53;;;16.60;nan
70758;BME280;59316;52.964;7.102;2023-04-09T16:20:43;102317.41;;;16.20;nan
70758;BME280;59316;52.964;7.102;2023-04-09T16:26:05;102307.88;;;15.72;nan
70758;BME280;59316;52.964;7.102;2023-04-09T16:31:27;102307.41;;;15.50;nan
70758;BME280;59316;52.964;7.102;2023-04-09T16:36:48;102299.00;;;15.27;nan
70758;BME280;59316;52.964;7.102;2023-04-09T16:42:09;102290.34;;;15.09;nan
70758;BME280;59316;52.964;7.102;2023-04-09T16:47:31;102286.09;;;14.90;nan
70758;BME280;59316;52.964;7.102;2023-04-09T16:52:53;102272.75;;;14.77;nan
70758;BME280;59316;52.964;7.102;2023-04-09T16:58:14;102284.81;;;14.82;nan
70758;BME280;59316;52.964;7.102;2023-04-09T17:03:36;102296.09;;;14.68;nan
70758;BME280;59316;52.964;7.102;2023-04-09T17:08:57;102297.34;;;14.44;nan
70758;BME280;59316;52.964;7.102;2023-04-09T17:14:19;102290.59;;;14.39;nan
70758;BME280;59316;52.964;7.102;2023-04-09T17:19:40;102295.34;;;14.32;nan
70758;BME280;59316;52.964;7.102;2023-04-09T17:25:02;102288.63;;;14.26;nan
70758;BME280;59316;52.964;7.102;2023-04-09T17:30:24;102298.69;;;14.18;nan
70758;BME280;59316;52.964;7.102;2023-04-09T17:35:45;102311.16;;;13.97;nan
70758;BME280;59316;52.964;7.102;2023-04-09T17:41:07;102302.75;;;13.71;nan
70758;BME280;59316;52.964;7.102;2023-04-09T17:46:29;102301.44;;;13.45;nan
70758;BME280;59316;52.964;7.102;2023-04-09T17:51:50;102309.63;;;13.01;nan
70758;BME280;59316;52.964;7.102;2023-04-09T17:57:12;102314.16;;;12.78;nan
70758;BME280;59316;52.964;7.102;2023-04-09T18:02:34;102320.19;;;12.61;nan
70758;BME280;59316;52.964;7.102;2023-04-09T18:07:57;102326.97;;;12.46;nan
70758;BME280;59316;52.964;7.102;2023-04-09T18:13:18;102320.22;;;12.20;nan
70758;BME280;59316;52.964;7.102;2023-04-09T18:18:40;102328.84;;;12.01;nan
70758;BME280;59316;52.964;7.102;2023-04-09T18:24:02;102315.72;;;11.80;nan
70758;BME280;59316;52.964;7.102;2023-04-09T18:29:23;102322.63;;;11.61;nan
70758;BME280;59316;52.964;7.102;2023-04-09T18:34:46;102337.25;;;11.22;nan
70758;BME280;59316;52.964;7.102;2023-04-09T18:40:09;102332.88;;;10.99;nan
70758;BME280;59316;52.964;7.102;2023-04-09T18:45:31;102332.38;;;10.89;nan
70758;BME280;59316;52.964;7.102;2023-04-09T18:50:52;102343.03;;;10.59;nan
70758;BME280;59316;52.964;7.102;2023-04-09T18:56:13;102330.88;;;10.33;nan
70758;BME280;59316;52.964;7.102;2023-04-09T19:01:35;102332.66;;;10.31;nan
70758;BME280;59316;52.964;7.102;2023-04-09T19:06:56;102341.53;;;10.27;nan
70758;BME280;59316;52.964;7.102;2023-04-09T19:12:18;102343.91;;;10.08;nan
70758;BME280;59316;52.964;7.102;2023-04-09T19:17:41;102343.34;;;9.99;nan
70758;BME280;59316;52.964;7.102;2023-04-09T19:23:02;102338.63;;;9.82;nan
70758;BME280;59316;52.964;7.102;2023-04-09T19:28:24;102333.84;;;9.97;nan
70758;BME280;59316;52.964;7.102;2023-04-09T19:33:45;102341.25;;;10.09;nan
70758;BME280;59316;52.964;7.102;2023-04-09T19:39:07;102336.34;;;10.00;nan
70758;BME280;59316;52.964;7.102;2023-04-09T19:44:28;102335.19;;;9.82;nan
70758;BME280;59316;52.964;7.102;2023-04-09T19:49:50;102326.94;;;9.67;nan
70758;BME280;59316;52.964;7.102;2023-04-09T19:55:11;102335.56;;;9.96;nan
70758;BME280;59316;52.964;7.102;2023-04-09T20:00:33;102325.28;;;10.17;nan
70758;BME280;59316;52.964;7.102;2023-04-09T20:05:55;102336.34;;;10.25;nan
70758;BME280;59316;52.964;7.102;2023-04-09T20:11:17;102336.78;;;10.13;nan
70758;BME280;59316;52.964;7.102;2023-04-09T20:16:38;102344.41;;;10.19;nan
70758;BME280;59316;52.964;7.102;2023-04-09T20:22:00;102342.00;;;10.38;nan
70758;BME280;59316;52.964;7.102;2023-04-09T20:27:22;102336.09;;;10.33;nan
70758;BME280;59316;52.964;7.102;2023-04-09T20:32:43;102326.91;;;10.21;nan
70758;BME280;59316;52.964;7.102;2023-04-09T20:38:05;102318.38;;;10.16;nan
70758;BME280;59316;52.964;7.102;2023-04-09T20:43:27;102313.41;;;10.08;nan
70758;BME280;59316;52.964;7.102;2023-04-09T20:48:48;102309.34;;;9.99;nan
70758;BME280;59316;52.964;7.102;2023-04-09T20:54:10;102290.09;;;10.02;nan
70758;BME280;59316;52.964;7.102;2023-04-09T20:59:31;102289.28;;;10.00;nan
70758;BME280;59316;52.964;7.102;2023-04-09T21:04:53;102293.22;;;9.86;nan
70758;BME280;59316;52.964;7.102;2023-04-09T21:10:14;102293.53;;;9.77;nan
70758;BME280;59316;52.964;7.102;2023-04-09T21:15:36;102297.66;;;9.58;nan
70758;BME280;59316;52.964;7.102;2023-04-09T21:20:57;102294.75;;;9.38;nan
70758;BME280;59316;52.964;7.102;2023-04-09T21:26:19;102296.78;;;9.29;nan
70758;BME280;59316;52.964;7.102;2023-04-09T21:31:40;102287.00;;;9.09;nan
70758;BME280;59316;52.964;7.102;2023-04-09T21:37:02;102283.66;;;9.03;nan
70758;BME280;59316;52.964;7.102;2023-04-09T21:42:23;102274.06;;;9.04;nan
70758;BME280;59316;52.964;7.102;2023-04-09T21:47:45;102270.81;;;8.97;nan
70758;BME280;59316;52.964;7.102;2023-04-09T21:53:06;102276.03;;;8.97;nan
70758;BME280;59316;52.964;7.102;2023-04-09T21:58:31;102277.75;;;8.97;nan
70758;BME280;59316;52.964;7.102;2023-04-09T22:03:53;102276.88;;;8.68;nan
70758;BME280;59316;52.964;7.102;2023-04-09T22:09:14;102274.06;;;8.44;nan
70758;BME280;59316;52.964;7.102;2023-04-09T22:14:36;102282.53;;;8.19;nan
70758;BME280;59316;52.964;7.102;2023-04-09T22:19:59;102282.41;;;7.89;nan
70758;BME280;59316;52.964;7.102;2023-04-09T22:25:21;102288.44;;;7.91;nan
70758;BME280;59316;52.964;7.102;2023-04-09T22:30:42;102289.31;;;7.92;nan
70758;BME280;59316;52.964;7.102;2023-04-09T22:36:04;102290.06;;;7.96;nan
70758;BME280;59316;52.964;7.102;2023-04-09T22:41:26;102298.72;;;7.98;nan
70758;BME280;59316;52.964;7.102;2023-04-09T22:46:48;102286.56;;;7.98;nan
70758;BME280;59316;52.964;7.102;2023-04-09T22:52:09;102290.72;;;8.05;nan
70758;BME280;59316;52.964;7.102;2023-04-09T22:57:31;102286.25;;;8.11;nan
70758;BME280;59316;52.964;7.102;2023-04-09T23:02:52;102289.78;;;8.08;nan
70758;BME280;59316;52.964;7.102;2023-04-09T23:08:14;102281.88;;;8.11;nan
70758;BME280;59316;52.964;7.102;2023-04-09T23:13:36;102277.66;;;8.07;nan
70758;BME280;59316;52.964;7.102;2023-04-09T23:18:58;102275.09;;;8.05;nan
70758;BME280;59316;52.964;7.102;2023-04-09T23:24:19;102266.59;;;7.99;nan
70758;BME280;59316;52.964;7.102;2023-04-09T23:29:41;102269.31;;;7.93;nan
70758;BME280;59316;52.964;7.102;2023-04-09T23:35:02;102247.91;;;7.81;nan
70758;BME280;59316;52.964;7.102;2023-04-09T23:40:24;102253.84;;;7.86;nan
70758;BME280;59316;52.964;7.102;2023-04-09T23:45:45;102243.66;;;7.77;nan
70758;BME280;59316;52.964;7.102;2023-04-09T23:51:07;102230.63;;;7.77;nan
70758;BME280;59316;52.964;7.102;2023-04-09T23:56:28;102233.00;;;7.86;nan
